Flight Briefing for CPX204

Departure Arrival
Li├Ęge Airport (EBLG)
Click to view FAA NOTAMS
Washington Dulles International Airport (KIAD)
Click to view FAA NOTAMS
Departure Time Arrival Time
1130 UTC 2000 UTC
Aircraft Distance
B767-300BDSF 3422nm
Departure METAR Arrival METAR
EBLG 252320Z 33006KT 9999 SCT018 BKN032 05/03 Q1031 NOSIG KIAD 252252Z 36011KT 7SM FEW012 BKN017 OVC055 09/06 A3002 RMK AO2 RAB2154E43 SLP167 P0000 T00890061
Suggested Route





View recent IFR Routes data
Notes



Charts and Procedures

Charts for EBLG
No chart available
Charts for KIAD
No chart available

Windy.com Weather Map